Terminal Aerodrome Forecast
Issued by NWS

Home | Current Version | Previous Version | Text Only | Print | Product List | Glossary On
Versions: 1 2 3 4 5 6 7 8 9 10 11 12 13 14 15 16 17 18 19 20 21 22 23 24
000
FTUS43 KDVN 161127
TAFBRL
TAF
KBRL 161127Z 1612/1712 10006KT 1 1/2SM -FZRA BR OVC002
     FM161300 09007KT 1SM RA BR OVC002
     FM170000 13005KT 1/4SM -DZ FG OVC003
     FM170800 33008KT 2SM BR OVC004=

USA.gov is the U.S. government's official web portal to all federal, state and local government web resources and services.